createdAt,value
2022-08-31T00:02:02.987Z,6.15
2022-08-31T00:04:32.121Z,5.57
2022-08-31T00:06:59.376Z,4.88
2022-08-31T00:09:26.541Z,4.88
2022-08-31T00:11:53.858Z,4.40
2022-08-31T00:14:21.056Z,3.95
2022-08-31T00:16:48.338Z,5.03
2022-08-31T00:19:15.841Z,3.90
2022-08-31T00:21:43.207Z,3.85
2022-08-31T00:24:14.379Z,4.38
2022-08-31T00:26:42.632Z,3.38
2022-08-31T00:29:09.848Z,4.03
2022-08-31T00:31:37.148Z,3.67
2022-08-31T00:34:04.870Z,3.90
2022-08-31T00:36:32.102Z,3.75
2022-08-31T00:38:59.453Z,3.38
2022-08-31T00:41:29.461Z,3.10
2022-08-31T00:43:58.301Z,3.40
2022-08-31T00:46:30.567Z,3.33
2022-08-31T00:49:06.710Z,3.10
2022-08-31T00:51:37.564Z,3.08
2022-08-31T00:54:06.069Z,3.33
2022-08-31T00:56:34.738Z,3.13
2022-08-31T00:59:02.152Z,3.45
2022-08-31T01:01:30.805Z,3.15
2022-08-31T01:03:58.758Z,3.45
2022-08-31T01:06:26.194Z,3.50
2022-08-31T01:08:54.698Z,3.10
2022-08-31T01:11:22.078Z,3.08
2022-08-31T01:13:49.478Z,3.50
2022-08-31T01:16:23.122Z,3.38
2022-08-31T01:18:51.050Z,3.30
2022-08-31T01:21:26.907Z,3.22
2022-08-31T01:23:55.593Z,3.17
2022-08-31T01:26:24.414Z,3.28
2022-08-31T01:28:52.153Z,3.28
2022-08-31T01:31:25.492Z,3.40
2022-08-31T01:33:52.740Z,3.25
2022-08-31T01:36:20.500Z,3.90
2022-08-31T01:38:53.076Z,3.50
2022-08-31T01:41:21.190Z,4.20
2022-08-31T01:43:48.353Z,4.82
2022-08-31T01:46:16.005Z,4.30
2022-08-31T01:48:44.191Z,5.03
2022-08-31T01:51:12.702Z,4.07
2022-08-31T01:53:42.105Z,4.80
2022-08-31T01:56:14.076Z,5.03
2022-08-31T01:58:41.491Z,4.88
2022-08-31T02:03:59.441Z,5.43
2022-08-31T02:06:26.704Z,6.88
2022-08-31T02:08:53.879Z,5.78
2022-08-31T02:11:21.169Z,5.75
2022-08-31T02:13:48.329Z,5.53
2022-08-31T02:16:15.631Z,5.40
2022-08-31T02:18:42.996Z,5.47
2022-08-31T02:21:10.170Z,6.10
2022-08-31T02:23:37.319Z,6.20
2022-08-31T02:26:04.614Z,5.80
2022-08-31T02:28:31.771Z,5.90
2022-08-31T02:30:58.953Z,6.28
2022-08-31T02:33:26.338Z,5.70
2022-08-31T02:35:53.846Z,6.60
2022-08-31T02:38:22.962Z,6.13
2022-08-31T02:40:51.826Z,6.35
2022-08-31T02:43:24.468Z,6.40
2022-08-31T02:45:53.815Z,7.30
2022-08-31T02:48:21.506Z,6.78
2022-08-31T02:50:50.146Z,7.35
2022-08-31T02:53:18.481Z,6.20
2022-08-31T02:55:45.928Z,6.60
2022-08-31T02:58:14.230Z,6.13
2022-08-31T03:00:44.967Z,5.78
2022-08-31T03:03:12.235Z,6.75
2022-08-31T03:05:39.503Z,6.35
2022-08-31T03:08:06.954Z,6.63
2022-08-31T03:10:34.413Z,6.28
2022-08-31T03:13:01.732Z,6.65
2022-08-31T03:15:29.921Z,6.95
2022-08-31T03:17:57.433Z,6.18
2022-08-31T03:20:25.645Z,7.72
2022-08-31T03:22:53.131Z,7.10
2022-08-31T03:25:20.608Z,7.10
2022-08-31T03:27:47.881Z,6.63
2022-08-31T03:30:17.518Z,7.15
2022-08-31T03:32:45.588Z,6.88
2022-08-31T03:35:14.685Z,6.57
2022-08-31T03:37:42.280Z,6.90
2022-08-31T03:40:09.941Z,7.82
2022-08-31T03:42:37.269Z,7.00
2022-08-31T03:45:05.092Z,7.80
2022-08-31T03:47:32.276Z,6.60
2022-08-31T03:49:59.467Z,6.53
2022-08-31T03:52:27.423Z,7.15
2022-08-31T03:54:54.580Z,6.45
2022-08-31T03:57:21.741Z,7.05
2022-08-31T03:59:49.074Z,6.82
2022-08-31T04:02:16.301Z,6.25
2022-08-31T04:04:43.511Z,6.50
2022-08-31T04:07:10.769Z,6.53
2022-08-31T04:09:37.944Z,6.72
2022-08-31T04:12:05.209Z,7.25
2022-08-31T04:14:32.538Z,6.63
2022-08-31T04:17:00.793Z,7.55
2022-08-31T04:19:27.993Z,6.05
2022-08-31T04:21:56.206Z,5.97
2022-08-31T04:24:23.489Z,6.15
2022-08-31T04:26:52.176Z,6.15
2022-08-31T04:29:19.617Z,6.10
2022-08-31T04:31:47.269Z,5.85
2022-08-31T04:34:14.935Z,5.97
2022-08-31T04:36:44.598Z,5.82
2022-08-31T04:39:12.720Z,5.93
2022-08-31T04:41:41.182Z,5.95
2022-08-31T04:44:09.350Z,6.05
2022-08-31T04:46:37.681Z,6.35
2022-08-31T04:49:04.923Z,6.38
2022-08-31T04:51:35.590Z,6.40
2022-08-31T04:54:06.918Z,6.03
2022-08-31T04:56:35.709Z,6.78
2022-08-31T04:59:04.683Z,5.97
2022-08-31T05:01:36.162Z,6.55
2022-08-31T05:04:11.465Z,6.93
2022-08-31T05:06:40.416Z,7.32
2022-08-31T05:09:09.505Z,8.20
2022-08-31T05:11:37.115Z,8.45
2022-08-31T05:14:06.402Z,6.47
2022-08-31T05:16:34.200Z,7.00
2022-08-31T05:19:01.894Z,6.30
2022-08-31T05:21:30.801Z,6.07
2022-08-31T05:23:59.474Z,6.05
2022-08-31T05:26:28.504Z,6.20
2022-08-31T05:28:55.871Z,6.22
2022-08-31T05:31:23.392Z,5.38
2022-08-31T05:33:51.466Z,5.60
2022-08-31T05:36:18.701Z,5.38
2022-08-31T05:38:45.892Z,5.28
2022-08-31T05:41:13.251Z,4.85
2022-08-31T05:43:40.868Z,5.22
2022-08-31T05:46:10.494Z,4.93
2022-08-31T05:48:38.597Z,4.35
2022-08-31T05:51:07.140Z,3.95
2022-08-31T05:53:35.112Z,5.03
2022-08-31T05:56:03.974Z,4.10
2022-08-31T05:58:31.700Z,5.03
2022-08-31T06:00:58.905Z,5.10
2022-08-31T06:03:26.418Z,5.20
2022-08-31T06:05:53.633Z,5.28
2022-08-31T06:08:21.594Z,5.45
2022-08-31T06:10:57.959Z,5.40
2022-08-31T06:13:26.261Z,5.40
2022-08-31T06:15:53.600Z,5.57
2022-08-31T06:18:23.797Z,5.10
2022-08-31T06:23:18.263Z,5.22
2022-08-31T06:25:45.742Z,5.40
2022-08-31T06:28:14.953Z,5.05
2022-08-31T06:30:54.704Z,4.60
2022-08-31T06:33:23.178Z,4.90
2022-08-31T06:35:50.355Z,4.82
2022-08-31T06:38:17.561Z,4.32
2022-08-31T06:40:44.971Z,5.18
2022-08-31T06:43:12.251Z,5.03
2022-08-31T06:45:39.530Z,4.88
2022-08-31T06:48:07.626Z,5.50
2022-08-31T06:50:34.851Z,6.03
2022-08-31T06:53:02.141Z,5.97
2022-08-31T06:55:29.468Z,6.13
2022-08-31T06:57:56.614Z,5.55
2022-08-31T07:00:23.834Z,4.90
2022-08-31T07:02:57.256Z,4.53
2022-08-31T07:05:25.185Z,5.28
2022-08-31T07:07:52.566Z,4.68
2022-08-31T07:10:19.785Z,5.25
2022-08-31T07:12:46.996Z,4.40
2022-08-31T07:15:14.358Z,4.88
2022-08-31T07:17:41.560Z,5.00
2022-08-31T07:20:09.188Z,4.20
2022-08-31T07:22:36.592Z,3.67
2022-08-31T07:25:03.841Z,3.80
2022-08-31T07:27:34.256Z,3.72
2022-08-31T07:30:01.503Z,2.88
2022-08-31T07:32:28.719Z,4.07
2022-08-31T07:35:00.705Z,3.83
2022-08-31T07:37:51.253Z,4.10
2022-08-31T07:40:37.262Z,3.10
2022-08-31T07:43:04.883Z,3.15
2022-08-31T07:45:37.235Z,3.10
2022-08-31T07:48:06.461Z,3.10
2022-08-31T07:50:33.864Z,3.00
2022-08-31T07:53:01.225Z,2.85
2022-08-31T07:55:30.661Z,2.72
2022-08-31T07:57:58.036Z,2.83
2022-08-31T08:00:28.344Z,2.25
2022-08-31T08:02:56.085Z,2.30
2022-08-31T08:05:27.027Z,2.22
2022-08-31T08:07:56.560Z,2.38
2022-08-31T08:10:24.357Z,2.90
2022-08-31T08:12:56.039Z,2.50
2022-08-31T08:15:24.407Z,2.13
2022-08-31T08:17:51.947Z,2.00
2022-08-31T08:20:30.633Z,2.30
2022-08-31T08:23:08.325Z,2.33
2022-08-31T08:25:38.126Z,2.63
2022-08-31T08:28:22.759Z,1.88
2022-08-31T08:30:54.606Z,1.73
2022-08-31T08:33:22.568Z,1.77
2022-08-31T08:36:00.672Z,2.22
2022-08-31T08:38:31.976Z,1.80
2022-08-31T08:41:00.226Z,1.75
2022-08-31T08:43:32.046Z,2.03
2022-08-31T08:46:06.833Z,1.92
2022-08-31T08:49:50.907Z,1.88
2022-08-31T08:51:38.882Z,1.80
2022-08-31T08:54:11.243Z,1.67
2022-08-31T08:56:42.089Z,2.00
2022-08-31T08:59:15.795Z,1.88
2022-08-31T09:01:47.913Z,1.50
2022-08-31T09:04:26.888Z,1.30
2022-08-31T09:07:04.875Z,1.65
2022-08-31T09:09:50.402Z,2.05
2022-08-31T09:12:25.895Z,1.80
2022-08-31T09:14:53.894Z,1.95
2022-08-31T09:17:39.748Z,1.98
2022-08-31T09:20:09.894Z,1.95
2022-08-31T09:22:51.027Z,1.88
2022-08-31T09:25:20.369Z,1.60
2022-08-31T09:27:57.487Z,2.13
2022-08-31T09:30:43.689Z,1.60
2022-08-31T09:33:18.507Z,1.63
2022-08-31T09:35:45.989Z,1.60
2022-08-31T09:38:25.962Z,1.92
2022-08-31T09:40:53.350Z,2.35
2022-08-31T09:43:29.491Z,2.22
2022-08-31T09:46:08.361Z,2.25
2022-08-31T09:48:44.140Z,2.20
2022-08-31T09:51:20.709Z,2.20
2022-08-31T09:54:06.878Z,2.30
2022-08-31T09:56:52.330Z,1.83
2022-08-31T09:59:30.650Z,1.70
2022-08-31T10:02:02.209Z,1.60
2022-08-31T10:04:38.062Z,1.55
2022-08-31T10:07:44.070Z,1.60
2022-08-31T10:10:28.181Z,1.60
2022-08-31T10:13:03.956Z,2.35
2022-08-31T10:15:35.382Z,2.08
2022-08-31T10:18:11.991Z,2.70
2022-08-31T10:20:46.333Z,1.90
2022-08-31T10:23:33.388Z,2.13
2022-08-31T10:26:07.330Z,2.10
2022-08-31T10:28:42.544Z,2.15
2022-08-31T10:31:22.244Z,2.50
2022-08-31T10:34:18.058Z,2.40
2022-08-31T10:36:46.110Z,1.70
2022-08-31T10:39:33.643Z,2.28
2022-08-31T10:42:05.483Z,2.28
2022-08-31T10:44:36.584Z,1.90
2022-08-31T10:47:05.823Z,2.47
2022-08-31T10:49:39.314Z,4.97
2022-08-31T10:52:10.241Z,2.45
2022-08-31T10:54:40.632Z,2.67
2022-08-31T10:57:07.809Z,2.63
2022-08-31T10:59:47.562Z,2.88
2022-08-31T11:02:33.136Z,2.63
2022-08-31T11:05:33.411Z,2.50
2022-08-31T11:08:01.679Z,2.85
2022-08-31T11:10:32.200Z,2.40
2022-08-31T11:15:37.182Z,2.22
2022-08-31T11:18:20.262Z,2.35
2022-08-31T11:21:07.843Z,2.30
2022-08-31T11:23:35.131Z,3.10
2022-08-31T11:26:28.478Z,2.92
2022-08-31T11:28:55.772Z,3.60
2022-08-31T11:31:24.511Z,3.03
2022-08-31T11:34:15.090Z,2.78
2022-08-31T11:36:43.010Z,3.08
2022-08-31T11:39:10.303Z,3.13
2022-08-31T11:41:39.229Z,2.13
2022-08-31T11:44:08.822Z,2.33
2022-08-31T11:46:36.394Z,2.03
2022-08-31T11:49:03.651Z,2.00
2022-08-31T11:51:41.235Z,1.95
2022-08-31T11:54:14.479Z,2.42
2022-08-31T11:56:44.439Z,2.17
2022-08-31T11:59:30.151Z,1.73
2022-08-31T12:02:02.136Z,1.50
2022-08-31T12:04:46.125Z,1.48
2022-08-31T12:07:17.078Z,1.65
2022-08-31T12:09:55.315Z,1.98
2022-08-31T12:12:32.240Z,1.85
2022-08-31T12:15:06.717Z,2.00
2022-08-31T12:17:40.262Z,1.80
2022-08-31T12:20:08.146Z,2.20
2022-08-31T12:22:54.012Z,2.22
2022-08-31T12:25:24.017Z,1.77
2022-08-31T12:28:10.311Z,1.80
2022-08-31T12:30:37.516Z,1.58
2022-08-31T12:33:13.629Z,1.73
2022-08-31T12:35:40.869Z,1.50
2022-08-31T12:38:10.580Z,1.95
2022-08-31T12:40:43.869Z,1.60
2022-08-31T12:43:17.239Z,1.50
2022-08-31T12:45:47.416Z,1.77
2022-08-31T12:48:23.968Z,1.75
2022-08-31T12:51:00.498Z,1.80
2022-08-31T12:53:45.005Z,1.90
2022-08-31T12:56:16.070Z,1.70
2022-08-31T12:58:55.733Z,1.70
2022-08-31T13:01:24.753Z,1.88
2022-08-31T13:03:55.487Z,1.55
2022-08-31T13:08:50.728Z,1.52
2022-08-31T13:11:23.499Z,1.52
2022-08-31T13:13:51.437Z,1.88
2022-08-31T13:16:19.026Z,1.95
2022-08-31T13:18:46.413Z,2.00
2022-08-31T13:21:21.301Z,2.10
2022-08-31T13:23:48.740Z,1.48
2022-08-31T13:26:21.178Z,1.70
2022-08-31T13:28:50.897Z,1.90
2022-08-31T13:31:26.345Z,1.60
2022-08-31T13:33:57.033Z,1.55
2022-08-31T13:39:19.765Z,1.48
2022-08-31T13:41:58.458Z,1.60
2022-08-31T13:44:33.746Z,1.90
2022-08-31T13:47:03.954Z,1.50
2022-08-31T13:49:35.540Z,1.73
2022-08-31T13:52:07.607Z,1.90
2022-08-31T13:54:35.988Z,1.58
2022-08-31T13:57:19.821Z,1.88
2022-08-31T13:59:47.638Z,1.95
2022-08-31T14:02:16.327Z,1.55
2022-08-31T14:04:44.241Z,1.58
2022-08-31T14:07:22.312Z,1.70
2022-08-31T14:10:12.162Z,1.40
2022-08-31T14:12:47.269Z,1.85
2022-08-31T14:15:19.544Z,1.90
2022-08-31T14:21:19.105Z,1.60
2022-08-31T14:23:40.956Z,1.75
2022-08-31T14:26:12.509Z,2.00
2022-08-31T14:28:41.764Z,1.70
2022-08-31T14:31:27.260Z,1.42
2022-08-31T14:34:07.960Z,1.83
2022-08-31T14:36:41.948Z,1.55
2022-08-31T14:39:09.122Z,1.90
2022-08-31T14:41:36.392Z,1.65
2022-08-31T14:44:10.279Z,1.70
2022-08-31T14:46:38.736Z,1.58
2022-08-31T14:49:07.254Z,1.70
2022-08-31T14:51:35.760Z,1.20
2022-08-31T14:54:02.985Z,1.55
2022-08-31T14:56:33.041Z,1.60
2022-08-31T14:59:03.107Z,1.38
2022-08-31T15:01:35.608Z,1.50
2022-08-31T15:04:04.960Z,1.50
2022-08-31T15:06:33.117Z,1.40
2022-08-31T15:09:05.128Z,1.05
2022-08-31T15:11:37.237Z,1.02
2022-08-31T15:14:05.563Z,1.15
2022-08-31T15:16:32.983Z,0.90
2022-08-31T15:19:02.111Z,1.25
2022-08-31T15:21:29.517Z,1.45
2022-08-31T15:23:56.746Z,1.00
2022-08-31T15:26:24.103Z,1.30
2022-08-31T15:28:56.546Z,1.60
2022-08-31T15:31:25.530Z,1.23
2022-08-31T15:33:55.426Z,1.23
2022-08-31T15:36:26.043Z,1.42
2022-08-31T15:38:55.494Z,1.42
2022-08-31T15:41:23.700Z,1.30
2022-08-31T15:43:52.224Z,1.30
2022-08-31T15:46:40.474Z,1.50
2022-08-31T15:49:09.934Z,1.35
2022-08-31T15:51:48.935Z,1.52
2022-08-31T15:54:22.333Z,1.35
2022-08-31T15:56:51.135Z,1.30
2022-08-31T15:59:18.514Z,1.60
2022-08-31T16:01:45.864Z,1.40
2022-08-31T16:04:16.173Z,1.23
2022-08-31T16:06:43.439Z,1.25
2022-08-31T16:09:10.687Z,1.45
2022-08-31T16:11:38.960Z,1.52
2022-08-31T16:14:10.912Z,1.40
2022-08-31T16:16:40.087Z,1.40
2022-08-31T16:19:08.553Z,1.40
2022-08-31T16:21:37.310Z,1.30
2022-08-31T16:24:07.799Z,1.17
2022-08-31T16:26:37.329Z,1.20
2022-08-31T16:29:06.151Z,1.70
2022-08-31T16:31:34.294Z,1.52
2022-08-31T16:34:01.710Z,1.50
2022-08-31T16:36:29.338Z,1.60
2022-08-31T16:38:56.825Z,1.27
2022-08-31T16:41:30.543Z,1.83
2022-08-31T16:44:18.513Z,1.50
2022-08-31T16:46:46.515Z,1.50
2022-08-31T16:49:32.445Z,1.15
2022-08-31T16:52:00.787Z,1.13
2022-08-31T16:54:28.657Z,1.20
2022-08-31T16:56:59.285Z,1.20
2022-08-31T16:59:27.883Z,1.40
2022-08-31T17:01:55.617Z,1.17
2022-08-31T17:04:50.363Z,1.10
2022-08-31T17:07:12.709Z,1.17
2022-08-31T17:09:40.725Z,1.17
2022-08-31T17:12:13.106Z,1.17
2022-08-31T17:14:47.030Z,0.93
2022-08-31T17:17:15.933Z,1.17
2022-08-31T17:19:46.727Z,1.20
2022-08-31T17:22:23.467Z,0.98
2022-08-31T17:24:56.261Z,1.00
2022-08-31T17:27:24.184Z,1.02
2022-08-31T17:29:52.655Z,1.20
2022-08-31T17:32:21.120Z,1.45
2022-08-31T17:34:52.057Z,1.23
2022-08-31T17:37:26.418Z,1.20
2022-08-31T17:39:54.149Z,1.60
2022-08-31T17:42:24.170Z,1.10
2022-08-31T17:44:52.468Z,1.20
2022-08-31T17:47:20.576Z,1.17
2022-08-31T17:49:49.816Z,1.45
2022-08-31T17:52:17.326Z,1.17
2022-08-31T17:54:45.965Z,1.63
2022-08-31T17:57:15.126Z,1.83
2022-08-31T17:59:44.036Z,2.55
2022-08-31T18:02:12.427Z,2.20
2022-08-31T18:04:40.292Z,2.70
2022-08-31T18:07:09.085Z,4.32
2022-08-31T18:09:37.221Z,4.13
2022-08-31T18:12:06.181Z,4.60
2022-08-31T18:14:34.290Z,4.93
2022-08-31T18:17:02.597Z,5.18
2022-08-31T18:19:31.404Z,4.20
2022-08-31T18:21:59.040Z,4.53
2022-08-31T18:24:26.854Z,3.88
2022-08-31T18:26:54.319Z,5.05
2022-08-31T18:29:25.030Z,4.70
2022-08-31T18:34:25.336Z,4.65
2022-08-31T18:36:55.323Z,6.18
2022-08-31T18:39:49.946Z,7.07
2022-08-31T18:42:32.226Z,8.55
2022-08-31T18:45:18.711Z,9.60
2022-08-31T18:48:01.881Z,9.00
2022-08-31T18:50:36.988Z,9.30
2022-08-31T18:53:10.835Z,9.70
2022-08-31T18:55:38.404Z,9.23
2022-08-31T18:58:05.804Z,9.10
2022-08-31T19:00:33.384Z,9.55
2022-08-31T19:03:02.035Z,8.13
2022-08-31T19:05:29.508Z,7.43
2022-08-31T19:07:58.868Z,7.95
2022-08-31T19:10:26.508Z,6.80
2022-08-31T19:12:57.174Z,8.30
2022-08-31T19:15:35.377Z,8.85
2022-08-31T19:18:05.494Z,9.32
2022-08-31T19:20:33.449Z,9.13
2022-08-31T19:23:00.833Z,8.93
2022-08-31T19:25:28.654Z,8.95
2022-08-31T19:27:56.066Z,8.80
2022-08-31T19:30:28.053Z,8.30
2022-08-31T19:32:56.657Z,9.07
2022-08-31T19:35:26.798Z,9.60
2022-08-31T19:37:56.345Z,9.13
2022-08-31T19:40:35.674Z,8.73
2022-08-31T19:45:54.339Z,8.68
2022-08-31T19:48:23.819Z,8.60
2022-08-31T19:50:51.674Z,8.23
2022-08-31T19:53:22.172Z,8.95
2022-08-31T19:55:51.086Z,8.20
2022-08-31T19:58:19.338Z,8.77
2022-08-31T20:00:48.260Z,8.52
2022-08-31T20:03:19.531Z,7.78
2022-08-31T20:08:14.119Z,7.57
2022-08-31T20:10:42.642Z,8.02
2022-08-31T20:13:10.064Z,8.40
2022-08-31T20:15:45.321Z,8.13
2022-08-31T20:18:12.908Z,7.93
2022-08-31T20:20:45.416Z,7.57
2022-08-31T20:23:16.726Z,8.50
2022-08-31T20:25:45.333Z,7.43
2022-08-31T20:28:12.854Z,6.22
2022-08-31T20:30:41.347Z,7.00
2022-08-31T20:33:09.042Z,5.65
2022-08-31T20:35:38.020Z,6.30
2022-08-31T20:38:06.127Z,6.32
2022-08-31T20:40:33.520Z,5.80
2022-08-31T20:43:01.410Z,5.10
2022-08-31T20:45:28.562Z,4.68
2022-08-31T20:48:14.540Z,4.50
2022-08-31T20:50:42.803Z,4.85
2022-08-31T20:53:17.125Z,5.13
2022-08-31T20:55:52.081Z,5.38
2022-08-31T20:58:19.360Z,5.22
2022-08-31T21:00:47.519Z,5.60
2022-08-31T21:03:16.086Z,4.68
2022-08-31T21:05:43.821Z,5.53
2022-08-31T21:08:12.121Z,5.75
2022-08-31T21:17:25.246Z,4.10
2022-08-31T21:19:52.941Z,4.45
2022-08-31T21:25:46.237Z,3.90
2022-08-31T21:30:41.337Z,3.50
2022-08-31T21:33:08.509Z,3.22
2022-08-31T21:35:35.757Z,3.35
2022-08-31T21:38:03.548Z,3.20
2022-08-31T21:40:31.222Z,2.60
2022-08-31T21:42:58.709Z,2.40
2022-08-31T21:45:25.910Z,2.33
2022-08-31T21:47:53.121Z,2.20
2022-08-31T21:50:20.556Z,2.05
2022-08-31T21:52:47.769Z,2.30
2022-08-31T21:55:18.012Z,1.90
2022-08-31T21:57:45.321Z,2.10
2022-08-31T22:00:14.813Z,2.25
2022-08-31T22:02:46.886Z,2.00
2022-08-31T22:05:14.356Z,2.38
2022-08-31T22:07:41.607Z,2.25
2022-08-31T22:10:09.118Z,2.00
2022-08-31T22:12:36.292Z,1.92
2022-08-31T22:15:06.600Z,1.60
2022-08-31T22:17:56.113Z,1.95
2022-08-31T22:20:22.120Z,1.52
2022-08-31T22:22:49.442Z,1.45
2022-08-31T22:25:16.849Z,1.70
2022-08-31T22:27:46.726Z,1.80
2022-08-31T22:30:14.264Z,1.60
2022-08-31T22:32:41.848Z,1.45
2022-08-31T22:35:09.140Z,1.70
2022-08-31T22:37:38.362Z,1.60
2022-08-31T22:40:05.770Z,1.35
2022-08-31T22:42:33.014Z,1.50
2022-08-31T22:45:00.524Z,1.40
2022-08-31T22:47:27.697Z,1.83
2022-08-31T22:49:54.977Z,1.38
2022-08-31T22:52:23.297Z,1.70
2022-08-31T22:54:50.486Z,1.20
2022-08-31T22:57:17.665Z,1.52
2022-08-31T22:59:44.881Z,1.88
2022-08-31T23:02:12.037Z,1.40
2022-08-31T23:04:43.715Z,1.10
2022-08-31T23:07:16.303Z,1.40
2022-08-31T23:09:44.241Z,1.50
2022-08-31T23:12:11.433Z,1.60
2022-08-31T23:14:41.253Z,1.27
2022-08-31T23:17:10.166Z,1.50
2022-08-31T23:19:42.436Z,2.03
2022-08-31T23:22:11.522Z,1.98
2022-08-31T23:24:40.701Z,1.20
2022-08-31T23:27:10.218Z,1.30
2022-08-31T23:29:45.565Z,1.42
2022-08-31T23:32:13.465Z,1.30
2022-08-31T23:34:41.640Z,1.52
2022-08-31T23:37:10.236Z,1.33
2022-08-31T23:39:39.182Z,1.48
2022-08-31T23:42:06.898Z,1.52
2022-08-31T23:44:36.147Z,1.45
2022-08-31T23:47:03.493Z,1.27
2022-08-31T23:49:30.659Z,1.30
2022-08-31T23:51:57.843Z,1.10
2022-08-31T23:54:25.171Z,1.50
2022-08-31T23:56:57.913Z,1.42
2022-08-31T23:59:26.043Z,1.40
